sensor_id;sensor_type;location;lat;lon;timestamp;pressure;altitude;pressure_sealevel;temperature;humidity
43217;BME280;60511;42.686;23.300;2023-05-09T00:01:27;94986.66;;;23.19;32.72
43217;BME280;60511;42.686;23.300;2023-05-09T00:03:30;94994.88;;;23.22;32.51
43217;BME280;60511;42.686;23.300;2023-05-09T00:05:32;94999.16;;;23.23;32.75
43217;BME280;60511;42.686;23.300;2023-05-09T00:07:33;94988.81;;;23.25;32.38
43217;BME280;60511;42.686;23.300;2023-05-09T00:09:33;94994.53;;;23.24;32.64
43217;BME280;60511;42.686;23.300;2023-05-09T00:11:33;94983.97;;;23.19;32.66
43217;BME280;60511;42.686;23.300;2023-05-09T00:13:34;94999.63;;;23.25;32.79
43217;BME280;60511;42.686;23.300;2023-05-09T00:15:34;94992.97;;;23.23;32.68
43217;BME280;60511;42.686;23.300;2023-05-09T00:17:35;94892.00;;;22.59;32.85
43217;BME280;60511;42.686;23.300;2023-05-09T00:19:37;94996.03;;;23.21;32.72
43217;BME280;60511;42.686;23.300;2023-05-09T00:21:38;94972.09;;;23.08;32.42
43217;BME280;60511;42.686;23.300;2023-05-09T00:23:38;94995.31;;;23.24;32.46
43217;BME280;60511;42.686;23.300;2023-05-09T00:25:39;94983.75;;;23.24;32.64
43217;BME280;60511;42.686;23.300;2023-05-09T00:27:39;94964.00;;;23.08;32.39
43217;BME280;60511;42.686;23.300;2023-05-09T00:29:39;94950.38;;;23.04;32.56
43217;BME280;60511;42.686;23.300;2023-05-09T00:31:40;94971.94;;;23.16;32.52
43217;BME280;60511;42.686;23.300;2023-05-09T00:33:40;94966.88;;;23.15;32.64
43217;BME280;60511;42.686;23.300;2023-05-09T00:35:41;94967.69;;;23.15;32.37
43217;BME280;60511;42.686;23.300;2023-05-09T00:37:41;94975.97;;;23.22;32.51
43217;BME280;60511;42.686;23.300;2023-05-09T00:39:41;94923.66;;;22.86;32.43
43217;BME280;60511;42.686;23.300;2023-05-09T00:41:42;94922.06;;;22.85;32.57
43217;BME280;60511;42.686;23.300;2023-05-09T00:43:42;94977.56;;;23.23;32.47
43217;BME280;60511;42.686;23.300;2023-05-09T00:45:43;94976.75;;;23.23;32.54
43217;BME280;60511;42.686;23.300;2023-05-09T00:47:44;94975.97;;;23.22;32.71
43217;BME280;60511;42.686;23.300;2023-05-09T00:49:44;94976.41;;;23.24;32.45
43217;BME280;60511;42.686;23.300;2023-05-09T00:51:46;94975.31;;;23.25;32.44
43217;BME280;60511;42.686;23.300;2023-05-09T00:53:47;94974.88;;;23.23;32.76
43217;BME280;60511;42.686;23.300;2023-05-09T00:55:47;94959.94;;;23.14;32.38
43217;BME280;60511;42.686;23.300;2023-05-09T00:57:48;94934.31;;;22.95;32.38
43217;BME280;60511;42.686;23.300;2023-05-09T00:59:48;94975.97;;;23.22;32.60
43217;BME280;60511;42.686;23.300;2023-05-09T01:01:48;94947.00;;;23.07;32.67
43217;BME280;60511;42.686;23.300;2023-05-09T01:03:49;94965.88;;;23.19;32.64
43217;BME280;60511;42.686;23.300;2023-05-09T01:06:15;94971.34;;;23.23;32.38
43217;BME280;60511;42.686;23.300;2023-05-09T01:08:28;94949.34;;;23.09;32.59
43217;BME280;60511;42.686;23.300;2023-05-09T01:10:42;94964.63;;;23.17;32.45
43217;BME280;60511;42.686;23.300;2023-05-09T01:13:05;94944.75;;;23.09;32.73
43217;BME280;60511;42.686;23.300;2023-05-09T01:22:22;94970.56;;;23.22;32.46
43217;BME280;60511;42.686;23.300;2023-05-09T01:25:05;94944.53;;;23.02;32.45
43217;BME280;60511;42.686;23.300;2023-05-09T01:29:46;94931.16;;;22.93;32.49
43217;BME280;60511;42.686;23.300;2023-05-09T01:31:47;94976.31;;;23.21;32.57
43217;BME280;60511;42.686;23.300;2023-05-09T01:33:53;94975.09;;;23.18;32.71
43217;BME280;60511;42.686;23.300;2023-05-09T01:36:01;94972.84;;;23.20;32.42
43217;BME280;60511;42.686;23.300;2023-05-09T01:38:09;94946.13;;;23.03;32.78
43217;BME280;60511;42.686;23.300;2023-05-09T01:40:16;94935.41;;;22.94;32.78
43217;BME280;60511;42.686;23.300;2023-05-09T01:42:19;94970.38;;;23.15;32.69
43217;BME280;60511;42.686;23.300;2023-05-09T01:44:21;94969.94;;;23.13;32.77
43217;BME280;60511;42.686;23.300;2023-05-09T01:46:24;94932.97;;;22.89;32.41
43217;BME280;60511;42.686;23.300;2023-05-09T01:48:26;94980.50;;;23.18;32.68
43217;BME280;60511;42.686;23.300;2023-05-09T01:50:29;94982.06;;;23.19;32.62
43217;BME280;60511;42.686;23.300;2023-05-09T01:52:30;94982.06;;;23.19;32.36
43217;BME280;60511;42.686;23.300;2023-05-09T01:54:32;94982.53;;;23.21;32.62
43217;BME280;60511;42.686;23.300;2023-05-09T01:56:34;94965.81;;;23.03;32.75
43217;BME280;60511;42.686;23.300;2023-05-09T01:58:35;94952.41;;;22.95;32.68
43217;BME280;60511;42.686;23.300;2023-05-09T02:00:37;94986.22;;;23.17;32.52
43217;BME280;60511;42.686;23.300;2023-05-09T02:02:38;94972.97;;;23.12;32.69
43217;BME280;60511;42.686;23.300;2023-05-09T02:04:40;94969.94;;;23.13;32.65
43217;BME280;60511;42.686;23.300;2023-05-09T02:06:42;94980.94;;;23.20;32.38
43217;BME280;60511;42.686;23.300;2023-05-09T02:08:44;94983.88;;;23.15;32.50
43217;BME280;60511;42.686;23.300;2023-05-09T02:10:45;94981.63;;;23.17;32.80
43217;BME280;60511;42.686;23.300;2023-05-09T02:12:46;94964.09;;;23.11;32.62
43217;BME280;60511;42.686;23.300;2023-05-09T02:14:46;94978.94;;;23.17;32.53
43217;BME280;60511;42.686;23.300;2023-05-09T02:16:47;94944.06;;;23.00;32.45
43217;BME280;60511;42.686;23.300;2023-05-09T02:18:47;94977.78;;;23.18;32.50
43217;BME280;60511;42.686;23.300;2023-05-09T02:20:48;94937.34;;;22.94;32.54
43217;BME280;60511;42.686;23.300;2023-05-09T02:22:48;94932.28;;;22.92;32.70
43217;BME280;60511;42.686;23.300;2023-05-09T02:24:49;94970.13;;;23.20;32.51
43217;BME280;60511;42.686;23.300;2023-05-09T02:26:50;94974.31;;;23.18;32.48
43217;BME280;60511;42.686;23.300;2023-05-09T02:28:50;94976.22;;;23.17;32.64
43217;BME280;60511;42.686;23.300;2023-05-09T02:30:52;94975.44;;;23.17;32.51
43217;BME280;60511;42.686;23.300;2023-05-09T02:32:56;94984.34;;;23.17;32.79
43217;BME280;60511;42.686;23.300;2023-05-09T02:35:00;94980.81;;;23.17;32.70
43217;BME280;60511;42.686;23.300;2023-05-09T02:37:01;94976.13;;;23.14;32.68
43217;BME280;60511;42.686;23.300;2023-05-09T02:39:02;94984.34;;;23.17;32.69
43217;BME280;60511;42.686;23.300;2023-05-09T02:41:03;94976.22;;;23.17;32.45
43217;BME280;60511;42.686;23.300;2023-05-09T02:43:03;94976.56;;;23.16;32.53
43217;BME280;60511;42.686;23.300;2023-05-09T02:45:04;94922.97;;;22.77;32.60
43217;BME280;60511;42.686;23.300;2023-05-09T02:47:07;94973.53;;;23.17;32.63
43217;BME280;60511;42.686;23.300;2023-05-09T02:49:07;94982.41;;;23.18;32.38
43217;BME280;60511;42.686;23.300;2023-05-09T02:51:07;94973.88;;;23.16;32.45
43217;BME280;60511;42.686;23.300;2023-05-09T02:53:08;94975.44;;;23.17;32.50
43217;BME280;60511;42.686;23.300;2023-05-09T02:55:09;94977.34;;;23.16;32.46
43217;BME280;60511;42.686;23.300;2023-05-09T02:57:09;94985.13;;;23.18;32.44
43217;BME280;60511;42.686;23.300;2023-05-09T02:59:10;94981.19;;;23.15;32.40
43217;BME280;60511;42.686;23.300;2023-05-09T03:01:10;94971.41;;;23.11;32.57
43217;BME280;60511;42.686;23.300;2023-05-09T03:03:11;94972.28;;;23.15;32.52
43217;BME280;60511;42.686;23.300;2023-05-09T03:05:11;94986.59;;;23.15;32.52
43217;BME280;60511;42.686;23.300;2023-05-09T03:07:11;94974.47;;;23.09;32.53
43217;BME280;60511;42.686;23.300;2023-05-09T03:09:12;94973.31;;;23.10;32.69
43217;BME280;60511;42.686;23.300;2023-05-09T03:11:12;94976.47;;;23.12;32.66
43217;BME280;60511;42.686;23.300;2023-05-09T03:13:12;94989.28;;;23.15;32.54
43217;BME280;60511;42.686;23.300;2023-05-09T03:15:13;94957.13;;;22.98;32.68
43217;BME280;60511;42.686;23.300;2023-05-09T03:17:13;94989.28;;;23.15;32.62
43217;BME280;60511;42.686;23.300;2023-05-09T03:19:20;94990.75;;;23.13;32.72
43217;BME280;60511;42.686;23.300;2023-05-09T03:21:20;94949.31;;;22.80;32.61
43217;BME280;60511;42.686;23.300;2023-05-09T03:23:21;94998.84;;;23.13;32.83
43217;BME280;60511;42.686;23.300;2023-05-09T03:25:21;95020.44;;;23.13;32.52
43217;BME280;60511;42.686;23.300;2023-05-09T03:27:22;95017.41;;;23.14;32.83
43217;BME280;60511;42.686;23.300;2023-05-09T03:29:22;95004.94;;;23.10;32.41
43217;BME280;60511;42.686;23.300;2023-05-09T03:31:22;94971.41;;;22.86;32.77
43217;BME280;60511;42.686;23.300;2023-05-09T03:33:23;95022.47;;;23.16;32.81
43217;BME280;60511;42.686;23.300;2023-05-09T03:35:23;95015.41;;;23.11;32.51
43217;BME280;60511;42.686;23.300;2023-05-09T03:37:24;95017.53;;;23.18;32.75
43217;BME280;60511;42.686;23.300;2023-05-09T03:39:24;95020.44;;;23.13;32.48
43217;BME280;60511;42.686;23.300;2023-05-09T03:41:25;95006.41;;;22.95;32.89
43217;BME280;60511;42.686;23.300;2023-05-09T03:43:25;95031.34;;;23.16;32.39
43217;BME280;60511;42.686;23.300;2023-05-09T03:45:26;95018.44;;;23.10;32.46
43217;BME280;60511;42.686;23.300;2023-05-09T03:47:26;95023.94;;;23.13;32.57
43217;BME280;60511;42.686;23.300;2023-05-09T03:49:26;95032.50;;;23.15;32.56
43217;BME280;60511;42.686;23.300;2023-05-09T03:51:27;95027.09;;;23.15;32.45
43217;BME280;60511;42.686;23.300;2023-05-09T03:53:27;95028.22;;;23.14;32.43
43217;BME280;60511;42.686;23.300;2023-05-09T03:55:28;95030.47;;;23.12;32.79
43217;BME280;60511;42.686;23.300;2023-05-09T03:57:29;95020.81;;;23.11;32.71
43217;BME280;60511;42.686;23.300;2023-05-09T03:59:29;95022.59;;;23.07;32.39
43217;BME280;60511;42.686;23.300;2023-05-09T04:01:30;95028.91;;;23.11;32.82
43217;BME280;60511;42.686;23.300;2023-05-09T04:03:30;95042.16;;;23.16;32.52
43217;BME280;60511;42.686;23.300;2023-05-09T04:05:31;94989.19;;;22.87;32.52
43217;BME280;60511;42.686;23.300;2023-05-09T04:07:32;95013.25;;;23.04;32.71
43217;BME280;60511;42.686;23.300;2023-05-09T04:09:33;94932.25;;;22.52;32.53
43217;BME280;60511;42.686;23.300;2023-05-09T04:11:33;94975.59;;;22.83;32.44
43217;BME280;60511;42.686;23.300;2023-05-09T04:13:34;95009.19;;;23.11;32.38
43217;BME280;60511;42.686;23.300;2023-05-09T04:15:34;95030.25;;;23.17;32.52
43217;BME280;60511;42.686;23.300;2023-05-09T04:17:34;95021.13;;;23.10;32.77
43217;BME280;60511;42.686;23.300;2023-05-09T04:19:35;95011.09;;;22.98;32.79
43217;BME280;60511;42.686;23.300;2023-05-09T04:21:35;95042.94;;;23.17;32.35
43217;BME280;60511;42.686;23.300;2023-05-09T04:23:35;95020.91;;;23.02;32.69
43217;BME280;60511;42.686;23.300;2023-05-09T04:25:37;95003.72;;;22.95;32.52
43217;BME280;60511;42.686;23.300;2023-05-09T04:27:38;95033.59;;;23.14;32.78
43217;BME280;60511;42.686;23.300;2023-05-09T04:29:38;95040.22;;;23.17;32.50
43217;BME280;60511;42.686;23.300;2023-05-09T04:31:39;95035.63;;;23.17;32.76
43217;BME280;60511;42.686;23.300;2023-05-09T04:33:39;95023.59;;;23.15;32.52
43217;BME280;60511;42.686;23.300;2023-05-09T04:35:39;95025.31;;;23.07;32.40
43217;BME280;60511;42.686;23.300;2023-05-09T04:37:40;95013.16;;;23.01;32.71
43217;BME280;60511;42.686;23.300;2023-05-09T04:39:41;95032.38;;;23.12;32.92
43217;BME280;60511;42.686;23.300;2023-05-09T04:41:41;95005.25;;;22.96;32.83
43217;BME280;60511;42.686;23.300;2023-05-09T04:43:43;94998.19;;;22.91;33.33
43217;BME280;60511;42.686;23.300;2023-05-09T04:45:44;95041.38;;;23.16;33.12
43217;BME280;60511;42.686;23.300;2023-05-09T04:47:44;95039.44;;;23.16;33.29
43217;BME280;60511;42.686;23.300;2023-05-09T04:49:45;95048.44;;;23.20;33.15
43217;BME280;60511;42.686;23.300;2023-05-09T04:51:45;95020.56;;;23.04;33.25
43217;BME280;60511;42.686;23.300;2023-05-09T04:53:45;95047.78;;;23.23;33.04
43217;BME280;60511;42.686;23.300;2023-05-09T04:55:46;95024.63;;;23.10;32.93
43217;BME280;60511;42.686;23.300;2023-05-09T04:57:47;95046.75;;;23.28;32.99
43217;BME280;60511;42.686;23.300;2023-05-09T04:59:48;95013.59;;;23.15;33.39
43217;BME280;60511;42.686;23.300;2023-05-09T05:01:49;95041.91;;;23.34;33.33
43217;BME280;60511;42.686;23.300;2023-05-09T05:03:49;95021.22;;;23.25;33.43
43217;BME280;60511;42.686;23.300;2023-05-09T05:05:49;95038.06;;;23.35;33.54
43217;BME280;60511;42.686;23.300;2023-05-09T05:07:50;95030.72;;;23.35;33.09
43217;BME280;60511;42.686;23.300;2023-05-09T05:09:50;95015.44;;;23.27;33.54
43217;BME280;60511;42.686;23.300;2023-05-09T05:11:51;95037.91;;;23.43;33.32
43217;BME280;60511;42.686;23.300;2023-05-09T05:13:51;95028.13;;;23.39;33.48
43217;BME280;60511;42.686;23.300;2023-05-09T05:15:51;94970.06;;;22.92;33.33
43217;BME280;60511;42.686;23.300;2023-05-09T05:17:52;95034.88;;;23.45;33.13
43217;BME280;60511;42.686;23.300;2023-05-09T05:19:52;95036.22;;;23.51;33.04
43217;BME280;60511;42.686;23.300;2023-05-09T05:21:52;94922.53;;;22.75;33.44
43217;BME280;60511;42.686;23.300;2023-05-09T05:23:53;95038.69;;;23.56;33.30
43217;BME280;60511;42.686;23.300;2023-05-09T05:25:53;95039.91;;;23.59;33.31
43217;BME280;60511;42.686;23.300;2023-05-09T05:27:53;95006.97;;;23.41;33.01
43217;BME280;60511;42.686;23.300;2023-05-09T05:29:54;95039.91;;;23.59;33.13
43217;BME280;60511;42.686;23.300;2023-05-09T05:31:54;95036.41;;;23.58;33.19
43217;BME280;60511;42.686;23.300;2023-05-09T05:33:55;95040.44;;;23.64;33.40
43217;BME280;60511;42.686;23.300;2023-05-09T05:35:55;95025.06;;;23.53;33.38
43217;BME280;60511;42.686;23.300;2023-05-09T05:37:56;95026.38;;;23.59;33.27
43217;BME280;60511;42.686;23.300;2023-05-09T05:39:56;95023.47;;;23.52;32.95
43217;BME280;60511;42.686;23.300;2023-05-09T05:41:57;95041.00;;;23.70;33.11
43217;BME280;60511;42.686;23.300;2023-05-09T05:43:57;94958.78;;;23.15;33.02
43217;BME280;60511;42.686;23.300;2023-05-09T05:45:58;95004.72;;;23.43;33.22
43217;BME280;60511;42.686;23.300;2023-05-09T05:47:59;95041.66;;;23.67;32.97
43217;BME280;60511;42.686;23.300;2023-05-09T05:50:04;95051.25;;;23.77;32.94
43217;BME280;60511;42.686;23.300;2023-05-09T05:52:06;95046.16;;;23.75;32.96
43217;BME280;60511;42.686;23.300;2023-05-09T05:54:06;95048.19;;;23.78;33.13
43217;BME280;60511;42.686;23.300;2023-05-09T05:56:07;95043.78;;;23.74;33.69
43217;BME280;60511;42.686;23.300;2023-05-09T05:58:08;95038.94;;;23.79;33.39
43217;BME280;60511;42.686;23.300;2023-05-09T06:00:09;95024.25;;;23.64;32.97
43217;BME280;60511;42.686;23.300;2023-05-09T06:02:10;95048.66;;;23.80;33.16
43217;BME280;60511;42.686;23.300;2023-05-09T06:04:10;95057.09;;;23.79;32.71
43217;BME280;60511;42.686;23.300;2023-05-09T06:06:11;95045.38;;;23.75;32.93
43217;BME280;60511;42.686;23.300;2023-05-09T06:08:11;95040.44;;;23.64;32.89
43217;BME280;60511;42.686;23.300;2023-05-09T06:10:12;95052.69;;;23.74;32.87
43217;BME280;60511;42.686;23.300;2023-05-09T06:12:12;95038.63;;;23.69;32.91
43217;BME280;60511;42.686;23.300;2023-05-09T06:14:16;95050.00;;;23.74;32.90
43217;BME280;60511;42.686;23.300;2023-05-09T06:16:17;95019.78;;;23.56;32.61
43217;BME280;60511;42.686;23.300;2023-05-09T06:18:17;95031.91;;;23.62;32.79
43217;BME280;60511;42.686;23.300;2023-05-09T06:20:18;95038.19;;;23.66;32.76
43217;BME280;60511;42.686;23.300;2023-05-09T06:22:18;95026.84;;;23.61;32.53
43217;BME280;60511;42.686;23.300;2023-05-09T06:24:19;95038.38;;;23.74;32.69
43217;BME280;60511;42.686;23.300;2023-05-09T06:26:19;95043.00;;;23.73;32.47
43217;BME280;60511;42.686;23.300;2023-05-09T06:28:19;95039.75;;;23.67;32.85
43217;BME280;60511;42.686;23.300;2023-05-09T06:30:20;95016.41;;;23.47;32.77
43217;BME280;60511;42.686;23.300;2023-05-09T06:32:20;95024.28;;;23.52;32.61
43217;BME280;60511;42.686;23.300;2023-05-09T06:34:21;95060.34;;;23.72;32.82
43217;BME280;60511;42.686;23.300;2023-05-09T06:36:21;95012.81;;;23.43;32.55
43217;BME280;60511;42.686;23.300;2023-05-09T06:38:21;95050.66;;;23.71;32.58
43217;BME280;60511;42.686;23.300;2023-05-09T06:40:22;95024.72;;;23.54;32.55
43217;BME280;60511;42.686;23.300;2023-05-09T06:42:22;95051.81;;;23.70;32.47
43217;BME280;60511;42.686;23.300;2023-05-09T06:44:22;94954.88;;;23.00;32.77
43217;BME280;60511;42.686;23.300;2023-05-09T06:46:23;95045.59;;;23.70;32.54
43217;BME280;60511;42.686;23.300;2023-05-09T06:48:24;95042.13;;;23.69;32.57
43217;BME280;60511;42.686;23.300;2023-05-09T06:50:24;94985.75;;;23.27;32.51
43217;BME280;60511;42.686;23.300;2023-05-09T06:52:24;95027.06;;;23.56;32.53
43217;BME280;60511;42.686;23.300;2023-05-09T06:54:25;95023.59;;;23.55;32.71
43217;BME280;60511;42.686;23.300;2023-05-09T06:56:25;95028.31;;;23.58;32.55
43217;BME280;60511;42.686;23.300;2023-05-09T06:58:27;95030.22;;;23.58;32.52
43217;BME280;60511;42.686;23.300;2023-05-09T07:00:27;95045.53;;;23.66;32.51
43217;BME280;60511;42.686;23.300;2023-05-09T07:02:27;95046.03;;;23.72;32.38
43217;BME280;60511;42.686;23.300;2023-05-09T07:04:29;95049.88;;;23.71;32.47
43217;BME280;60511;42.686;23.300;2023-05-09T07:06:29;95005.16;;;23.45;32.53
43217;BME280;60511;42.686;23.300;2023-05-09T07:08:30;95011.44;;;23.49;32.46
43217;BME280;60511;42.686;23.300;2023-05-09T07:10:31;95020.88;;;23.55;32.46
43217;BME280;60511;42.686;23.300;2023-05-09T07:12:31;95040.28;;;23.73;32.45
43217;BME280;60511;42.686;23.300;2023-05-09T07:14:32;95019.41;;;23.58;32.43
43217;BME280;60511;42.686;23.300;2023-05-09T07:16:32;95028.06;;;23.63;32.32
43217;BME280;60511;42.686;23.300;2023-05-09T07:18:32;95040.28;;;23.73;32.50
43217;BME280;60511;42.686;23.300;2023-05-09T07:20:33;94996.28;;;23.44;32.47
43217;BME280;60511;42.686;23.300;2023-05-09T07:22:33;95046.63;;;23.77;32.20
43217;BME280;60511;42.686;23.300;2023-05-09T07:24:34;95029.53;;;23.61;32.37
43217;BME280;60511;42.686;23.300;2023-05-09T07:26:35;95046.84;;;23.72;32.33
43217;BME280;60511;42.686;23.300;2023-05-09T07:28:35;95020.53;;;23.57;32.73
43217;BME280;60511;42.686;23.300;2023-05-09T07:30:37;95015.91;;;23.57;32.31
43217;BME280;60511;42.686;23.300;2023-05-09T07:32:37;95014.38;;;23.56;32.33
43217;BME280;60511;42.686;23.300;2023-05-09T07:34:38;95041.53;;;23.76;32.58
43217;BME280;60511;42.686;23.300;2023-05-09T07:36:38;95046.16;;;23.75;32.40
43217;BME280;60511;42.686;23.300;2023-05-09T07:38:38;95030.75;;;23.63;32.33
43217;BME280;60511;42.686;23.300;2023-05-09T07:40:39;95044.81;;;23.69;32.38
43217;BME280;60511;42.686;23.300;2023-05-09T07:42:40;95041.78;;;23.71;32.33
43217;BME280;60511;42.686;23.300;2023-05-09T07:44:44;95045.03;;;23.76;32.32
43217;BME280;60511;42.686;23.300;2023-05-09T07:46:44;95029.88;;;23.59;32.32
43217;BME280;60511;42.686;23.300;2023-05-09T07:48:45;95034.94;;;23.61;32.29
43217;BME280;60511;42.686;23.300;2023-05-09T07:50:45;95051.25;;;23.77;32.50
43217;BME280;60511;42.686;23.300;2023-05-09T07:52:45;95040.69;;;23.59;32.30
43217;BME280;60511;42.686;23.300;2023-05-09T07:54:46;95038.75;;;23.72;32.29
43217;BME280;60511;42.686;23.300;2023-05-09T07:56:46;95050.91;;;23.78;32.03
43217;BME280;60511;42.686;23.300;2023-05-09T07:58:47;95050.91;;;23.78;32.33
43217;BME280;60511;42.686;23.300;2023-05-09T08:00:47;95052.47;;;23.79;32.45
43217;BME280;60511;42.686;23.300;2023-05-09T08:02:51;95046.28;;;23.79;32.24
43217;BME280;60511;42.686;23.300;2023-05-09T08:04:52;95039.72;;;23.80;32.09
43217;BME280;60511;42.686;23.300;2023-05-09T08:06:52;95008.69;;;23.61;32.18
43217;BME280;60511;42.686;23.300;2023-05-09T08:08:52;95004.22;;;23.53;32.33
43217;BME280;60511;42.686;23.300;2023-05-09T08:10:53;94944.16;;;23.16;32.04
43217;BME280;60511;42.686;23.300;2023-05-09T08:12:53;95018.50;;;23.66;32.02
43217;BME280;60511;42.686;23.300;2023-05-09T08:14:53;95045.56;;;23.82;32.24
43217;BME280;60511;42.686;23.300;2023-05-09T08:16:54;95039.84;;;23.83;32.09
43217;BME280;60511;42.686;23.300;2023-05-09T08:18:54;95043.69;;;23.82;32.32
43217;BME280;60511;42.686;23.300;2023-05-09T08:20:55;95046.81;;;23.84;32.16
43217;BME280;60511;42.686;23.300;2023-05-09T08:22:55;95044.91;;;23.85;32.24
43217;BME280;60511;42.686;23.300;2023-05-09T08:24:55;95050.31;;;23.85;32.06
43217;BME280;60511;42.686;23.300;2023-05-09T08:26:56;95044.91;;;23.85;31.88
43217;BME280;60511;42.686;23.300;2023-05-09T08:28:56;95050.31;;;23.85;32.01
43217;BME280;60511;42.686;23.300;2023-05-09T08:30:56;95044.13;;;23.84;32.15
43217;BME280;60511;42.686;23.300;2023-05-09T08:32:57;95044.56;;;23.86;32.05
43217;BME280;60511;42.686;23.300;2023-05-09T08:34:57;95039.50;;;23.85;32.06
43217;BME280;60511;42.686;23.300;2023-05-09T08:36:57;95039.16;;;23.86;32.10
43217;BME280;60511;42.686;23.300;2023-05-09T08:38:58;95019.44;;;23.74;32.01
43217;BME280;60511;42.686;23.300;2023-05-09T08:40:59;95031.19;;;23.78;32.00
43217;BME280;60511;42.686;23.300;2023-05-09T08:43:00;95026.22;;;23.80;32.18
43217;BME280;60511;42.686;23.300;2023-05-09T08:45:08;95023.88;;;23.78;31.89
43217;BME280;60511;42.686;23.300;2023-05-09T08:47:09;95023.50;;;23.80;31.85
43217;BME280;60511;42.686;23.300;2023-05-09T08:49:10;95020.03;;;23.79;32.03
43217;BME280;60511;42.686;23.300;2023-05-09T08:51:11;95006.31;;;23.72;31.85
43217;BME280;60511;42.686;23.300;2023-05-09T08:53:13;95006.22;;;23.69;31.74
43217;BME280;60511;42.686;23.300;2023-05-09T08:55:13;94994.25;;;23.70;32.14
43217;BME280;60511;42.686;23.300;2023-05-09T08:57:14;95030.34;;;23.90;31.83
43217;BME280;60511;42.686;23.300;2023-05-09T08:59:15;95019.78;;;23.84;31.90
43217;BME280;60511;42.686;23.300;2023-05-09T09:01:16;95034.63;;;23.91;31.97
43217;BME280;60511;42.686;23.300;2023-05-09T09:03:17;95021.19;;;23.78;31.85
43217;BME280;60511;42.686;23.300;2023-05-09T09:05:17;95026.53;;;23.91;31.87
43217;BME280;60511;42.686;23.300;2023-05-09T09:07:18;95022.13;;;23.86;31.87
43217;BME280;60511;42.686;23.300;2023-05-09T09:09:19;95012.94;;;23.75;31.89
43217;BME280;60511;42.686;23.300;2023-05-09T09:11:21;94996.50;;;23.67;32.02
43217;BME280;60511;42.686;23.300;2023-05-09T09:13:22;95041.16;;;23.90;32.04
43217;BME280;60511;42.686;23.300;2023-05-09T09:15:26;95008.47;;;23.66;32.20
43217;BME280;60511;42.686;23.300;2023-05-09T09:17:29;95042.75;;;23.91;31.79
43217;BME280;60511;42.686;23.300;2023-05-09T09:19:32;95038.00;;;23.88;31.80
43217;BME280;60511;42.686;23.300;2023-05-09T09:21:33;95033.75;;;23.86;31.99
43217;BME280;60511;42.686;23.300;2023-05-09T09:23:33;95040.72;;;23.88;31.79
43217;BME280;60511;42.686;23.300;2023-05-09T09:25:36;95002.72;;;23.68;32.06
43217;BME280;60511;42.686;23.300;2023-05-09T09:27:37;95010.47;;;23.70;32.06
43217;BME280;60511;42.686;23.300;2023-05-09T09:29:37;95028.25;;;23.83;32.01
43217;BME280;60511;42.686;23.300;2023-05-09T09:31:43;95007.09;;;23.73;31.85
43217;BME280;60511;42.686;23.300;2023-05-09T09:33:44;94963.09;;;23.44;31.88
43217;BME280;60511;42.686;23.300;2023-05-09T09:35:44;95018.81;;;23.77;31.95
43217;BME280;60511;42.686;23.300;2023-05-09T09:37:44;95034.53;;;23.87;32.09
43217;BME280;60511;42.686;23.300;2023-05-09T09:39:55;95038.44;;;23.90;31.91
43217;BME280;60511;42.686;23.300;2023-05-09T09:41:55;95032.94;;;23.86;31.85
43217;BME280;60511;42.686;23.300;2023-05-09T09:43:57;95015.63;;;23.75;31.99
43217;BME280;60511;42.686;23.300;2023-05-09T09:46:01;95041.50;;;23.88;31.78
43217;BME280;60511;42.686;23.300;2023-05-09T09:48:05;95035.31;;;23.88;31.95
43217;BME280;60511;42.686;23.300;2023-05-09T09:50:14;95043.41;;;23.88;32.08
43217;BME280;60511;42.686;23.300;2023-05-09T09:52:22;95033.38;;;23.88;31.97
43217;BME280;60511;42.686;23.300;2023-05-09T09:54:27;95034.53;;;23.87;32.06
43217;BME280;60511;42.686;23.300;2023-05-09T09:56:44;95040.72;;;23.88;32.14
43217;BME280;60511;42.686;23.300;2023-05-09T09:58:45;95030.50;;;23.81;31.89
43217;BME280;60511;42.686;23.300;2023-05-09T10:00:46;95036.09;;;23.88;31.87
43217;BME280;60511;42.686;23.300;2023-05-09T10:02:51;95034.19;;;23.89;31.85
43217;BME280;60511;42.686;23.300;2023-05-09T10:04:52;95030.06;;;23.79;32.00
43217;BME280;60511;42.686;23.300;2023-05-09T10:06:53;95038.44;;;23.90;31.98
43217;BME280;60511;42.686;23.300;2023-05-09T10:08:54;95014.19;;;23.77;31.69
43217;BME280;60511;42.686;23.300;2023-05-09T10:10:54;95027.09;;;23.84;31.83
43217;BME280;60511;42.686;23.300;2023-05-09T10:13:01;95027.31;;;23.91;31.99
43217;BME280;60511;42.686;23.300;2023-05-09T10:15:06;95018.31;;;23.87;31.92
43217;BME280;60511;42.686;23.300;2023-05-09T10:17:12;94996.03;;;23.78;31.64
43217;BME280;60511;42.686;23.300;2023-05-09T10:19:18;95002.31;;;23.82;31.71
43217;BME280;60511;42.686;23.300;2023-05-09T10:21:19;95018.03;;;23.92;31.83
43217;BME280;60511;42.686;23.300;2023-05-09T10:23:20;95009.41;;;23.86;31.78
43217;BME280;60511;42.686;23.300;2023-05-09T10:25:29;95019.63;;;23.93;31.89
43217;BME280;60511;42.686;23.300;2023-05-09T10:27:35;95017.69;;;23.94;31.78
43217;BME280;60511;42.686;23.300;2023-05-09T10:29:43;94997.63;;;23.79;31.77
43217;BME280;60511;42.686;23.300;2023-05-09T10:31:44;95016.94;;;23.93;31.65
43217;BME280;60511;42.686;23.300;2023-05-09T10:33:47;95016.59;;;23.95;31.63
43217;BME280;60511;42.686;23.300;2023-05-09T10:35:48;94998.16;;;23.84;31.59
43217;BME280;60511;42.686;23.300;2023-05-09T10:37:49;95004.34;;;23.85;31.72
43217;BME280;60511;42.686;23.300;2023-05-09T10:39:51;94993.09;;;23.83;31.61
43217;BME280;60511;42.686;23.300;2023-05-09T10:41:52;94995.03;;;23.82;31.77
43217;BME280;60511;42.686;23.300;2023-05-09T10:43:57;94969.50;;;23.67;31.69
43217;BME280;60511;42.686;23.300;2023-05-09T10:45:58;95014.66;;;23.95;31.51